Clearfield, South Dakota
Current Conditions -  °F | °C
As of 1:53 PM on Thursday 23 Oct 2014 (Local Time) from KICR Reporting Station
Clear Clear  
Wind Chill: 73°   Ceiling: Unl
Heat Index: 73°   Visibility: 10mi
Dew Point: 26°   Wind: 6mph
Humidity: 17%   Direction: NA
Pressure: 29.94"   Gusts: NA
Location:  43.2923°N, 99.8934°W
Report Text: KICR 231853Z AUTO VRB05KT 10SM CLR 23/M03 A2994 RMK AO2 SLP134 T02281033 $
Loading
Personal Weather Stations






























Interactive Weather Map
Tropical Storm Tracking
New forecast layout! Learn more

10-Day Weather Forecast

Advertisements
Track Severe Weather on mobile